Flight Track Log - Related Links

Times and Time Zones

All times are in EDT time to prevent confusion due to time zone crossing. See the UAL235 flight status page for this flight to view local times or setup timezone preferences in your user account.

Time Position Orientation Groundspeed Altitude Reporting Facility
EDT Latitude Longitude Course Direction KTS MPH feet Rate Location/Type
Thu 10:32:16 AM 28.4167 -81.3167 270° West 171 197 700  Level Orlando TRACON
Thu 10:33:11 AM 28.3667 -81.3333 196° South 218 251 2,200 2,031 Climbing Orlando TRACON
Thu 10:34:23 AM 28.3000 -81.3833 213° Southwest 289 333 5,000 2,667 Climbing Orlando TRACON
Thu 10:35:00 AM 28.4167 -81.7859 270° West  Level FlightAware
Thu 10:35:17 AM 28.3000 -81.4667 270° West 286 329 7,800  Level Orlando TRACON
Thu 10:36:00 AM 28.4167 -81.9074 270° West  Level FlightAware
Thu 10:36:18 AM 28.3167 -81.5667 281° West 285 328 10,800  Level Orlando TRACON
Thu 10:37:00 AM 28.4167 -82.0289 270° West  Level FlightAware
Thu 10:37:52 AM 28.3242 -81.7278 273° West 318 366 12,100  Level Jacksonville Center
Thu 10:38:52 AM 28.3397 -81.8478 278° West 363 418 14,300 2,050 Climbing Jacksonville Center
Thu 10:39:52 AM 28.3492 -81.9703 275° West 391 450 16,200 1,800 Climbing Jacksonville Center
Thu 10:40:52 AM 28.3625 -82.1047 276° West 416 479 17,900 1,500 Climbing Jacksonville Center
Thu 10:41:52 AM 28.3758 -82.2344 277° West 421 484 19,200 1,450 Climbing Jacksonville Center
Thu 10:42:52 AM 28.3867 -82.3569 276° West 434 499 20,800 1,400 Climbing Jacksonville Center
Thu 10:43:52 AM 28.4081 -82.4914 280° West 439 505 22,000 1,400 Climbing Jacksonville Center
Thu 10:44:52 AM 28.5000 -82.5783 320° Northwest 408 470 23,600 1,350 Climbing Jacksonville Center
Thu 10:45:52 AM 28.5942 -82.6681 320° Northwest 419 482 24,700 1,150 Climbing Jacksonville Center
Thu 10:46:52 AM 28.6925 -82.7506 324° Northwest 433 498 25,900 1,150 Climbing Jacksonville Center
Thu 10:47:52 AM 28.7928 -82.8358 323° Northwest 438 504 27,000 1,050 Climbing Jacksonville Center
Thu 10:48:52 AM 28.8928 -82.9211 323° Northwest 444 511 28,000 1,300 Climbing Jacksonville Center
Thu 10:49:52 AM 28.9889 -83.0017 324° Northwest 444 511 29,600 1,250 Climbing Jacksonville Center
Thu 10:50:52 AM 29.0869 -83.0875 323° Northwest 444 511 30,500 1,050 Climbing Jacksonville Center
Thu 10:51:52 AM 29.1806 -83.1708 322° Northwest 439 505 31,700 750 Climbing Jacksonville Center
Thu 10:52:52 AM 29.2786 -83.2544 323° Northwest 439 505 32,000 100 Climbing Jacksonville Center
Thu 10:53:52 AM 29.3722 -83.3333 324° Northwest 439 505 31,900 -50 Descending Jacksonville Center
Thu 10:54:52 AM 29.4700 -83.4197 322° Northwest 439 505 31,900  Level Jacksonville Center
Thu 10:55:52 AM 29.5739 -83.5086 323° Northwest 439 505 31,900  Level Jacksonville Center
Thu 10:56:52 AM 29.6694 -83.5953 322° Northwest 439 505 31,900  Level Jacksonville Center
Thu 10:57:52 AM 29.7631 -83.6772 323° Northwest 439 505 31,900  Level Jacksonville Center
Thu 10:58:52 AM 29.8606 -83.7594 324° Northwest 439 505 31,900  Level Jacksonville Center
Thu 10:59:52 AM 29.9581 -83.8444 323° Northwest 439 505 31,900 50 Level Jacksonville Center
Thu 11:00:52 AM 30.0536 -83.9292 323° Northwest 439 505 32,000 50 Climbing Jacksonville Center
Thu 11:01:52 AM 30.1467 -84.0119 322° Northwest 439 505 32,000 -50 Level Jacksonville Center
Thu 11:02:52 AM 30.2419 -84.0947 323° Northwest 439 505 31,900 -50 Descending Jacksonville Center
Thu 11:03:52 AM 30.3353 -84.1778 322° Northwest 439 505 31,900 50 Level Jacksonville Center
Thu 11:04:52 AM 30.4283 -84.2608 322° Northwest 434 499 32,000  Climbing Jacksonville Center
Thu 11:05:52 AM 30.5233 -84.3492 321° Northwest 434 499 31,900  Descending Jacksonville Center
Thu 11:06:52 AM 30.5847 -84.4636 302° West 418 481 32,000  Climbing Jacksonville Center
Thu 11:07:52 AM 30.6353 -84.5850 296° West 418 481 31,900 -50 Descending Jacksonville Center
Thu 11:08:52 AM 30.6794 -84.7089 293° West 418 481 31,900  Level Jacksonville Center
Thu 11:09:52 AM 30.7217 -84.8306 292° West 413 475 31,900  Level Jacksonville Center
Thu 11:10:52 AM 30.7678 -84.9525 294° West 413 475 31,900  Level Jacksonville Center
Thu 11:11:52 AM 30.8075 -85.0644 292° West 413 475 31,900  Level Jacksonville Center
Thu 11:12:52 AM 30.8514 -85.1889 292° West 413 475 31,900 50 Level Jacksonville Center
Thu 11:13:52 AM 30.8969 -85.3136 293° West 413 475 32,000 50 Climbing Jacksonville Center
Thu 11:14:52 AM 30.9406 -85.4358 293° West 413 475 32,000  Level Jacksonville Center
Thu 11:15:52 AM 30.9839 -85.5606 292° West 413 475 32,000 -50 Level Jacksonville Center
Thu 11:16:52 AM 31.0272 -85.6831 292° West 413 475 31,900  Descending Jacksonville Center
Thu 11:17:52 AM 31.0683 -85.8078 291° West 413 475 32,000 50 Climbing Jacksonville Center
Thu 11:18:52 AM 31.1092 -85.9303 291° West 413 475 32,000  Level Jacksonville Center
Thu 11:19:52 AM 31.1542 -86.0533 293° West 413 475 32,000  Level Jacksonville Center
Thu 11:20:52 AM 31.1972 -86.1736 293° West 413 475 32,000  Level Jacksonville Center
Thu 11:21:52 AM 31.2397 -86.2992 292° West 413 475 32,000  Level Jacksonville Center
Thu 11:22:52 AM 31.2822 -86.4222 292° West 413 475 32,000  Level Jacksonville Center
Thu 11:23:52 AM 31.3286 -86.5553 292° West 413 475 32,000  Level Jacksonville Center
Thu 11:24:52 AM 31.3689 -86.6761 291° West 413 475 32,000  Level Jacksonville Center
Thu 11:25:53 AM 31.4133 -86.7883 295° West 393 452 32,000  Level Atlanta Center
Thu 11:26:53 AM 31.4525 -86.9111 291° West 393 452 32,000  Level Atlanta Center
Thu 11:27:53 AM 31.4975 -87.0319 294° West 399 459 32,000  Level Atlanta Center
Thu 11:28:53 AM 31.5383 -87.1550 291° West 399 459 32,000  Level Atlanta Center
Thu 11:29:53 AM 31.5828 -87.2883 291° West 399 459 32,000  Level Atlanta Center
Thu 11:30:53 AM 31.6256 -87.4094 293° West 399 459 32,000  Level Atlanta Center
Thu 11:31:53 AM 31.6639 -87.5303 290° West 399 459 32,000  Level Atlanta Center
Thu 11:32:53 AM 31.7042 -87.6514 291° West 399 459 32,000  Level Atlanta Center
Thu 11:33:53 AM 31.7444 -87.7728 291° West 399 459 32,000  Level Atlanta Center
Thu 11:34:53 AM 31.7867 -87.8967 292° West 399 459 32,000  Level Atlanta Center
Thu 11:35:53 AM 31.8267 -88.0181 291° West 399 459 32,000  Level Atlanta Center
Thu 11:37:57 AM 31.9025 -88.2578 290° West 407 468 32,000  Level Memphis Center
Thu 11:38:57 AM 31.9464 -88.3892 292° West 407 468 32,000  Level Memphis Center
Thu 11:39:57 AM 31.9922 -88.5081 294° West 407 468 32,000  Level Memphis Center
Thu 11:40:57 AM 32.0419 -88.6272 296° West 407 468 32,000  Level Memphis Center
Thu 11:41:57 AM 32.0997 -88.7267 304° West 402 463 32,000  Level Memphis Center
Thu 11:42:57 AM 32.1761 -88.8283 312° West 407 468 32,000  Level Memphis Center
Thu 11:44:00 AM 32.2242 -88.9515 295° West  Level FlightAware
Thu 11:44:57 AM 32.3244 -89.0322 295° West 412 474 32,000  Level Memphis Center
Thu 11:45:57 AM 32.4008 -89.1319 312° West 412 474 32,000  Level Memphis Center
Thu 11:46:57 AM 32.4769 -89.2344 311° West 412 474 32,000  Level Memphis Center
Thu 11:47:57 AM 32.5528 -89.3344 312° West 407 468 32,000  Level Memphis Center
Thu 11:48:57 AM 32.6247 -89.4397 309° West 407 468 32,000  Level Memphis Center
Thu 11:49:57 AM 32.6714 -89.5578 295° West 396 456 32,000  Level Memphis Center
Thu 11:50:57 AM 32.7158 -89.6758 294° West 391 450 32,000  Level Memphis Center
Thu 11:51:57 AM 32.7603 -89.7964 294° West 396 456 32,000  Level Memphis Center
Thu 11:52:57 AM 32.8028 -89.9172 293° West 396 456 32,000  Level Memphis Center
Thu 11:53:57 AM 32.8531 -90.0506 294° West 396 456 32,000  Level Memphis Center
Thu 11:54:57 AM 32.8994 -90.1667 295° West 396 456 32,000  Level Memphis Center
Thu 11:55:57 AM 32.9433 -90.2831 294° West 396 456 32,000  Level Memphis Center
Thu 11:56:57 AM 32.9872 -90.4044 293° West 396 456 32,000  Level Memphis Center
Thu 11:57:57 AM 33.0289 -90.5233 293° West 396 456 32,000  Level Memphis Center
Thu 11:58:57 AM 33.0744 -90.6400 295° West 396 456 32,000  Level Memphis Center
Thu 11:59:57 AM 33.1181 -90.7614 293° West 396 456 32,000  Level Memphis Center
Thu 12:00:57 PM 33.1594 -90.8808 293° West 396 456 32,000  Level Memphis Center
Thu 12:01:57 PM 33.1986 -90.9878 294° West 396 456 32,000  Level Memphis Center
Thu 12:02:57 PM 33.2417 -91.1050 294° West 396 456 32,000  Level Memphis Center
Thu 12:03:57 PM 33.2828 -91.2244 292° West 396 456 32,000  Level Memphis Center
Thu 12:04:57 PM 33.3256 -91.3417 294° West 396 456 32,000  Level Memphis Center
Thu 12:05:57 PM 33.3706 -91.4642 294° West 396 456 32,000  Level Memphis Center
Thu 12:06:57 PM 33.4092 -91.5817 292° West 396 456 32,000  Level Memphis Center
Thu 12:07:57 PM 33.4558 -91.6967 296° West 391 450 32,000  Level Memphis Center
Thu 12:08:57 PM 33.4983 -91.8169 293° West 391 450 32,000  Level Memphis Center
Thu 12:09:57 PM 33.5428 -91.9375 294° West 391 450 32,000  Level Memphis Center
Thu 12:10:57 PM 33.5811 -92.0528 292° West 391 450 32,000  Level Memphis Center
Thu 12:11:57 PM 33.6233 -92.1733 293° West 391 450 32,000  Level Memphis Center
Thu 12:12:57 PM 33.6653 -92.2914 293° West 391 450 32,000  Level Memphis Center
Thu 12:13:57 PM 33.7050 -92.4097 292° West 391 450 32,000  Level Memphis Center
Thu 12:14:57 PM 33.7450 -92.5281 292° West 391 450 32,000  Level Memphis Center
Thu 12:15:57 PM 33.7886 -92.6467 294° West 391 450 32,000  Level Memphis Center
Thu 12:16:57 PM 33.8281 -92.7678 291° West 391 450 32,000  Level Memphis Center
Thu 12:17:57 PM 33.8694 -92.8889 292° West 391 450 32,000  Level Memphis Center
Thu 12:18:57 PM 33.9111 -93.0053 293° West 391 450 32,000  Level Memphis Center
Thu 12:19:57 PM 33.9503 -93.1242 292° West 391 450 32,000  Level Memphis Center
Thu 12:20:57 PM 33.9911 -93.2456 292° West 391 450 32,000  Level Memphis Center
Thu 12:21:57 PM 34.0322 -93.3622 293° West 391 450 32,000  Level Memphis Center
Thu 12:24:18 PM 34.1294 -93.6525 292° West 394 453 32,000  Level Fort Center
Thu 12:25:18 PM 34.1686 -93.7714 292° West 388 447 32,000  Level Fort Center
Thu 12:26:18 PM 34.2075 -93.8903 292° West 388 447 32,000  Level Fort Center
Thu 12:27:18 PM 34.2461 -94.0092 291° West 383 441 32,000  Level Fort Center
Thu 12:28:18 PM 34.2847 -94.1283 291° West 383 441 32,000  Level Fort Center
Thu 12:29:18 PM 34.3233 -94.2475 291° West 383 441 32,000  Level Fort Center
Thu 12:30:18 PM 34.3617 -94.3669 291° West 383 441 32,000  Level Fort Center
Thu 12:31:18 PM 34.4000 -94.4839 292° West 383 441 32,000  Level Fort Center
Thu 12:32:18 PM 34.4383 -94.6033 291° West 383 441 32,000  Level Fort Center
Thu 12:33:18 PM 34.4764 -94.7231 291° West 383 441 32,000  Level Fort Center
Thu 12:34:18 PM 34.5144 -94.8453 291° West 383 441 32,000  Level Fort Center
Thu 12:35:18 PM 34.5522 -94.9603 292° West 383 441 32,000  Level Fort Center
Thu 12:36:18 PM 34.5919 -95.0778 292° West 377 434 32,000  Level Fort Center
Thu 12:37:18 PM 34.6256 -95.2003 288° West 382 440 32,000  Level Fort Center
Thu 12:38:18 PM 34.6608 -95.3131 291° West 387 445 32,000  Level Fort Center
Thu 12:39:18 PM 34.6981 -95.4308 291° West 387 445 32,000  Level Fort Center
Thu 12:40:18 PM 34.7375 -95.5486 292° West 382 440 32,000  Level Fort Center
Thu 12:41:18 PM 34.7706 -95.6642 289° West 376 433 32,000  Level Fort Center
Thu 12:42:18 PM 34.8056 -95.7850 289° West 376 433 32,000  Level Fort Center
Thu 12:43:18 PM 34.8467 -95.9056 293° West 376 433 32,000  Level Fort Center
Thu 12:44:18 PM 34.8814 -96.0239 290° West 381 438 32,000  Level Fort Center
Thu 12:45:18 PM 34.9181 -96.1450 290° West 381 438 32,000  Level Fort Center
Thu 12:46:18 PM 34.9547 -96.2658 290° West 386 444 32,000  Level Fort Center
Thu 12:47:18 PM 34.9911 -96.3872 290° West 386 444 32,000  Level Fort Center
Thu 12:48:18 PM 35.0297 -96.5058 292° West 386 444 32,000  Level Fort Center
Thu 12:49:18 PM 35.0658 -96.6272 290° West 386 444 32,000  Level Fort Center
Thu 12:50:18 PM 35.1019 -96.7461 290° West 386 444 32,000  Level Fort Center
Thu 12:51:18 PM 35.1381 -96.8703 290° West 386 444 32,000  Level Fort Center
Thu 12:52:18 PM 35.1739 -96.9919 290° West 386 444 32,000  Level Fort Center
Thu 12:53:18 PM 35.2119 -97.1164 291° West 386 444 32,000  Level Fort Center
Thu 12:54:18 PM 35.2539 -97.2533 291° West 386 444 32,000  Level Fort Center
Thu 12:55:18 PM 35.2914 -97.3781 290° West 386 444 32,000  Level Fort Center
Thu 12:56:18 PM 35.3269 -97.5025 289° West 386 444 32,000  Level Fort Center
Thu 12:57:18 PM 35.3603 -97.6172 290° West 391 450 32,000  Level Fort Center
Thu 12:58:18 PM 35.4119 -97.7319 299° West 386 444 32,000  Level Fort Center
Thu 12:59:18 PM 35.4639 -97.8469 299° West 386 444 32,000  Level Fort Center
Thu 01:01:22 PM 35.5692 -98.0808 299° West 390 449 32,000  Level Kansas Center
Thu 01:02:26 PM 35.6208 -98.1975 299° West 389 448 32,000  Level Kansas Center
Thu 01:03:27 PM 35.6825 -98.3383 298° West 391 450 32,000  Level Kansas Center
Thu 01:04:28 PM 35.7281 -98.4419 298° West 390 449 32,000  Level Kansas Center
Thu 01:05:33 PM 35.7792 -98.5603 298° West 391 450 32,000  Level Kansas Center
Thu 01:06:33 PM 35.8408 -98.7011 298° West 389 448 32,000 634 Level Kansas Center
Thu 01:07:36 PM 35.8867 -98.8067 298° West 387 445 33,300 968 Climbing Kansas Center
Thu 01:08:37 PM 35.9353 -98.9186 298° West 377 434 34,000 336 Climbing Kansas Center
Thu 01:09:41 PM 35.9928 -99.0542 298° West 372 428 34,000  Level Kansas Center
Thu 01:10:42 PM 36.0428 -99.1664 299° West 372 428 34,000  Level Kansas Center
Thu 01:11:43 PM 36.0947 -99.2775 300° West 374 430 34,000  Level Kansas Center
Thu 01:12:47 PM 36.1397 -99.3956 295° West 371 427 34,000  Level Kansas Center
Thu 01:13:48 PM 36.1881 -99.5083 298° West 371 427 34,000  Level Kansas Center
Thu 01:14:49 PM 36.2369 -99.6222 298° West 374 430 34,000  Level Kansas Center
Thu 01:15:53 PM 36.2853 -99.7369 298° West 374 430 34,000  Level Kansas Center
Thu 01:16:54 PM 36.3436 -99.8731 298° West 372 428 34,000  Level Kansas Center
Thu 01:17:57 PM 36.4103 -99.9792 308° West 384 442 34,000  Level Kansas Center
Thu 01:18:58 PM 36.4775 -100.0836 309° West 386 444 34,000  Level Kansas Center
Thu 01:19:59 PM 36.5461 -100.1886 309° West 388 447 34,000  Level Kansas Center
Thu 01:21:03 PM 36.6128 -100.2928 309° West 386 444 34,000  Level Kansas Center
Thu 01:22:04 PM 36.6908 -100.4125 309° West 387 445 34,000  Level Kansas Center
Thu 01:23:05 PM 36.7556 -100.5125 309° West 387 445 34,000  Level Kansas Center
Thu 01:24:08 PM 36.8300 -100.6314 308° West 389 448 34,000  Level Kansas Center
Thu 01:25:09 PM 36.8956 -100.7322 309° West 389 448 34,000  Level Kansas Center
Thu 01:26:13 PM 36.9594 -100.8344 308° West 389 448 34,000  Level Kansas Center
Thu 01:27:14 PM 37.0356 -100.9547 308° West 392 451 34,000  Level Kansas Center
Thu 01:28:17 PM 37.1031 -101.0544 310° West 391 450 34,000  Level Kansas Center
Thu 01:29:19 PM 37.1833 -101.1722 311° West 394 453 34,000  Level Kansas Center
Thu 01:30:20 PM 37.2522 -101.2742 310° West 397 457 34,000  Level Kansas Center
Thu 01:31:22 PM 37.3339 -101.3933 311° West 400 460 34,000  Level Kansas Center
Thu 01:32:25 PM 37.4033 -101.4953 311° West 399 459 34,000  Level Kansas Center
Thu 01:33:26 PM 37.4844 -101.6158 310° West 401 461 34,000  Level Kansas Center
Thu 01:34:29 PM 37.5533 -101.7183 310° West 400 460 34,000  Level Kansas Center
Thu 01:35:30 PM 37.6225 -101.8211 310° West 401 461 34,000  Level Kansas Center
Thu 01:36:33 PM 37.7028 -101.9403 310° West 400 460 34,000  Level Kansas Center
Thu 01:37:36 PM 37.7822 -102.0594 310° West 397 457 34,000  Level Denver Center
Thu 01:38:38 PM 37.8525 -102.1611 311° West 400 460 34,000  Level Denver Center
Thu 01:39:40 PM 37.9381 -102.2761 313° West 401 461 34,000  Level Denver Center
Thu 01:40:42 PM 38.0111 -102.3744 313° West 400 460 34,000  Level Denver Center
Thu 01:41:44 PM 38.0953 -102.4917 312° West 402 463 34,000  Level Denver Center
Thu 01:42:46 PM 38.1711 -102.5922 314° West 410 472 34,000  Level Denver Center
Thu 01:43:48 PM 38.2444 -102.6936 313° West 408 470 34,000 -432 Level Denver Center
Thu 01:44:51 PM 38.3303 -102.8119 313° West 409 471 33,100 -1,728 Descending Denver Center
Thu 01:45:53 PM 38.4019 -102.9119 312° West 400 460 30,400 -1,500 Descending Denver Center
Thu 01:46:55 PM 38.4881 -103.0311 313° West 408 470 30,000 -435 Descending Denver Center
Thu 01:47:57 PM 38.5583 -103.1294 312° West 394 453 29,500 -677 Descending Denver Center
Thu 01:48:59 PM 38.6322 -103.2325 313° West 383 441 28,600 -919 Descending Denver Center
Thu 01:50:01 PM 38.7050 -103.3336 313° West 383 441 27,600 -1,016 Descending Denver Center
Thu 01:51:03 PM 38.7792 -103.4397 312° West 375 432 26,500 -1,065 Descending Denver Center
Thu 01:52:05 PM 38.8569 -103.5494 312° West 374 430 25,400 -1,016 Descending Denver Center
Thu 01:53:07 PM 38.9267 -103.6478 312° West 369 425 24,400 -919 Descending Denver Center
Thu 01:54:09 PM 38.9944 -103.7433 312° West 361 415 23,500 -1,065 Descending Denver Center
Thu 01:55:11 PM 39.0617 -103.8386 312° West 356 410 22,200 -1,548 Descending Denver Center
Thu 01:56:13 PM 39.1278 -103.9339 312° West 354 407 20,300 -1,839 Descending Denver Center
Thu 01:57:15 PM 39.1925 -104.0256 312° West 345 397 18,400 -1,306 Descending Denver Center
Thu 01:58:17 PM 39.2592 -104.1225 312° West 322 371 17,600 -1,065 Descending Denver Center
Thu 01:59:19 PM 39.2819 -104.2144 288° West 269 310 16,200 -1,403 Descending Denver Center
Thu 02:00:21 PM 39.3033 -104.3122 286° West 262 302 14,700 -968 Descending Denver Center
Thu 02:01:23 PM 39.3236 -104.3950 288° West 239 275 14,200 -726 Descending Denver Center
Thu 02:02:25 PM 39.3722 -104.4625 313° West 241 277 13,200 -1,065 Descending Denver Center
Thu 02:03:27 PM 39.4264 -104.5172 322° Northwest 253 291 12,000 -1,296 Descending Denver Center
Thu 02:04:30 PM 39.4972 -104.5481 341° North 249 287 10,500 -1,296 Descending Denver Center
Thu 02:05:32 PM 39.5628 -104.5775 341° North 251 289 9,300 -1,161 Descending Denver Center
Thu 02:06:34 PM 39.6314 -104.6083 341° North 244 281 8,100 -774 Descending Denver Center
Thu 02:07:36 PM 39.6897 -104.6344 341° North 226 260 7,700 -387 Descending Denver Center

Login

Don't have an account? Register now (free) for customized features, flight alerts, and more!